Time;durP1;ratioP1;P1;durP2;ratioP2;P2;SDS_P1;SDS_P2;PMS_P1;PMS_P2;Temp;Humidity;BMP_temperature;BMP_pressure;BME280_temperature;BME280_humidity;BME280_pressure;Samples;Min_cycle;Max_cycle;Signal;HPM_P1;HPM_P2
2022/12/06 00:01:43;;;;;;;12.02;7.45;;;;;;;3.43;100.00;101740.25;4998169;28;20639;-46
2022/12/06 00:04:14;;;;;;;7.68;6.80;;;;;;;3.43;100.00;101747.28;4992765;28;20196;-42
2022/12/06 00:06:43;;;;;;;8.75;7.22;;;;;;;3.44;100.00;101741.13;4996456;28;20192;-40
2022/12/06 00:09:16;;;;;;;7.78;6.80;;;;;;;3.43;100.00;101742.00;4998453;28;20362;-43
2022/12/06 00:11:41;;;;;;;9.02;7.70;;;;;;;3.43;100.00;101745.56;4992746;28;20174;-45
2022/12/06 00:14:07;;;;;;;10.18;7.35;;;;;;;3.44;100.00;101741.13;4998539;28;20185;-41
2022/12/06 00:16:34;;;;;;;10.48;7.30;;;;;;;3.44;100.00;101735.84;4989953;28;20587;-42
2022/12/06 00:19:00;;;;;;;7.57;6.68;;;;;;;3.43;100.00;101739.34;4993651;28;20714;-46
2022/12/06 00:21:35;;;;;;;9.25;7.30;;;;;;;3.45;100.00;101730.53;4992929;28;20176;-48
2022/12/06 00:24:16;;;;;;;6.93;6.25;;;;;;;3.44;100.00;101735.84;4994824;28;20185;-43
2022/12/06 00:26:44;;;;;;;6.65;5.90;;;;;;;3.47;100.00;101736.72;4991709;28;20197;-40
2022/12/06 00:29:16;;;;;;;6.45;5.75;;;;;;;3.50;100.00;101739.41;4992953;28;20216;-42
2022/12/06 00:31:42;;;;;;;4.70;3.08;;;;;;;3.46;100.00;101726.13;4998868;28;20189;-41
2022/12/06 00:34:08;;;;;;;5.80;3.83;;;;;;;3.49;100.00;101736.75;4990653;28;20783;-42
2022/12/06 00:36:36;;;;;;;2.75;2.53;;;;;;;3.43;100.00;101715.50;4993959;28;20196;-43
2022/12/06 00:39:13;;;;;;;6.05;3.50;;;;;;;3.39;100.00;101724.31;4997059;28;20209;-42
2022/12/06 00:41:39;;;;;;;3.85;3.45;;;;;;;3.39;100.00;101730.53;4992789;28;20298;-44
2022/12/06 00:44:05;;;;;;;5.38;4.40;;;;;;;3.33;100.00;101722.53;5002252;28;20185;-48
2022/12/06 00:46:32;;;;;;;4.85;4.35;;;;;;;3.25;100.00;101734.81;4992595;28;20268;-47
2022/12/06 00:48:59;;;;;;;6.70;4.45;;;;;;;3.24;100.00;101725.13;4997496;28;20227;-42
2022/12/06 00:51:27;;;;;;;7.63;5.05;;;;;;;3.21;100.00;101718.03;4996612;28;20272;-46
2022/12/06 00:53:54;;;;;;;6.95;4.20;;;;;;;3.19;100.00;101722.47;4998974;28;20184;-46
2022/12/06 00:56:19;;;;;;;7.50;5.28;;;;;;;3.25;100.00;101718.94;4999823;28;20279;-45
2022/12/06 00:58:45;;;;;;;7.53;5.65;;;;;;;3.28;100.00;101726.91;4992483;28;20240;-48
2022/12/06 01:01:24;;;;;;;7.63;5.18;;;;;;;3.32;100.00;101719.88;4997432;28;20239;-43
2022/12/06 01:03:52;;;;;;;7.63;5.60;;;;;;;3.30;100.00;101720.75;4990164;28;20236;-46
2022/12/06 01:06:21;;;;;;;7.80;4.78;;;;;;;3.26;100.00;101724.25;4994073;28;20303;-47
2022/12/06 01:08:47;;;;;;;7.20;4.32;;;;;;;3.25;100.00;101725.13;4997903;28;20205;-43
2022/12/06 01:11:13;;;;;;;6.22;4.85;;;;;;;3.22;100.00;101719.81;4990029;28;20183;-43
2022/12/06 01:13:39;;;;;;;8.30;5.70;;;;;;;3.23;100.00;101716.28;4994302;28;20204;-41
2022/12/06 01:16:10;;;;;;;7.70;5.05;;;;;;;3.19;100.00;101711.88;4997345;28;20177;-46
2022/12/06 01:18:36;;;;;;;7.82;4.97;;;;;;;3.22;100.00;101724.22;4988954;28;20181;-47
2022/12/06 01:21:11;;;;;;;5.65;4.70;;;;;;;3.12;100.00;101719.75;4997891;28;20182;-47
2022/12/06 01:23:37;;;;;;;6.80;5.07;;;;;;;3.14;100.00;101716.22;5002101;28;20211;-44
2022/12/06 01:26:06;;;;;;;6.15;4.78;;;;;;;3.13;100.00;101719.75;5001069;28;20196;-45
2022/12/06 01:28:33;;;;;;;7.38;4.97;;;;;;;3.15;100.00;101714.44;4995016;28;20283;-46
2022/12/06 01:30:58;;;;;;;8.13;5.65;;;;;;;3.18;100.00;101718.03;4992915;28;20185;-42
2022/12/06 01:33:24;;;;;;;7.03;5.07;;;;;;;3.14;100.00;101718.88;4993060;28;20709;-47
2022/12/06 01:35:49;;;;;;;6.57;4.82;;;;;;;3.14;100.00;101708.28;4995018;28;20234;-47
2022/12/06 01:38:15;;;;;;;5.72;5.13;;;;;;;3.21;100.00;101711.84;5001714;28;20559;-45
2022/12/06 01:40:43;;;;;;;7.85;5.40;;;;;;;3.17;100.00;101697.72;4993243;28;20595;-45
2022/12/06 01:43:30;;;;;;;6.32;4.78;;;;;;;3.20;100.00;101699.50;4994042;28;20319;-46
2022/12/06 01:45:58;;;;;;;4.63;3.97;;;;;;;3.24;100.00;101690.69;4998169;28;20201;-45
2022/12/06 01:48:26;;;;;;;6.60;4.03;;;;;;;3.23;100.00;101697.72;4996382;28;20578;-46
2022/12/06 01:50:55;;;;;;;5.40;3.97;;;;;;;3.24;100.00;101686.28;5001705;28;20189;-44
2022/12/06 01:53:23;;;;;;;4.30;3.90;;;;;;;3.26;100.00;101695.13;4994980;28;20185;-46
2022/12/06 01:55:48;;;;;;;5.60;4.07;;;;;;;3.32;100.00;101698.69;4997001;28;20177;-45
2022/12/06 01:58:37;;;;;;;5.50;4.00;;;;;;;3.28;100.00;101693.38;4998106;28;20181;-46
2022/12/06 02:01:03;;;;;;;6.20;3.60;;;;;;;3.32;100.00;101680.13;4992114;28;20180;-44
2022/12/06 02:03:32;;;;;;;4.82;3.60;;;;;;;3.29;100.00;101692.47;4997603;28;20185;-47
2022/12/06 02:05:59;;;;;;;7.72;4.07;;;;;;;3.32;100.00;101688.97;4999438;28;20868;-46
2022/12/06 02:08:26;;;;;;;3.92;3.60;;;;;;;3.28;100.00;101680.13;4997095;28;20204;-46
2022/12/06 02:10:53;;;;;;;6.75;3.35;;;;;;;3.30;100.00;101686.31;5000663;28;20180;-47
2022/12/06 02:13:20;;;;;;;6.88;3.90;;;;;;;3.32;100.00;101674.84;4979066;28;20646;-46
2022/12/06 02:16:03;;;;;;;4.20;3.70;;;;;;;3.32;100.00;101673.06;4981081;28;20644;-48
2022/12/06 02:18:54;;;;;;;5.90;3.63;;;;;;;3.35;100.00;101667.81;4992204;28;20223;-44
2022/12/06 02:21:40;;;;;;;3.65;3.35;;;;;;;3.39;100.00;101660.75;4996479;28;20201;-46
2022/12/06 02:24:24;;;;;;;5.15;3.90;;;;;;;3.37;100.00;101671.34;4992809;28;20509;-47
2022/12/06 02:26:59;;;;;;;3.58;3.28;;;;;;;3.40;100.00;101666.06;4981723;28;20182;-45
2022/12/06 02:29:46;;;;;;;3.45;3.00;;;;;;;3.42;100.00;101650.19;5000844;28;20212;-44
2022/12/06 02:32:20;;;;;;;6.38;3.10;;;;;;;3.45;100.00;101658.13;4997695;28;20197;-45
2022/12/06 02:34:54;;;;;;;3.33;2.70;;;;;;;3.45;100.00;101659.00;4996605;28;20217;-44
2022/12/06 02:37:32;;;;;;;3.58;2.60;;;;;;;3.50;100.00;101649.31;4995188;28;20184;-46
2022/12/06 02:40:15;;;;;;;2.20;2.00;;;;;;;3.47;100.00;101641.34;4998456;28;20216;-45
2022/12/06 02:42:50;;;;;;;2.15;2.00;;;;;;;3.48;100.00;101647.56;4995260;28;21152;-46
2022/12/06 02:45:26;;;;;;;2.45;2.22;;;;;;;3.48;100.00;101642.25;4997339;28;20208;-45
2022/12/06 02:47:55;;;;;;;1.95;1.85;;;;;;;3.47;100.00;101641.34;4989283;28;20580;-47
2022/12/06 02:50:27;;;;;;;3.13;2.13;;;;;;;3.49;100.00;101649.31;4996266;28;20203;-47
2022/12/06 02:52:53;;;;;;;5.45;2.53;;;;;;;3.55;100.00;101638.75;4988677;28;20268;-47
2022/12/06 02:55:22;;;;;;;3.42;2.55;;;;;;;3.53;100.00;101640.50;4995024;28;20189;-46
2022/12/06 02:57:51;;;;;;;3.90;1.90;;;;;;;3.53;100.00;101643.16;5000315;28;20279;-47
2022/12/06 03:00:28;;;;;;;2.17;1.75;;;;;;;3.56;100.00;101635.19;4995324;28;20522;-45
2022/12/06 03:03:07;;;;;;;2.17;1.70;;;;;;;3.58;100.00;101632.56;4996453;28;20182;-45
2022/12/06 03:05:38;;;;;;;1.95;1.38;;;;;;;3.61;100.00;101620.22;4991094;28;20193;-46
2022/12/06 03:08:17;;;;;;;1.30;1.20;;;;;;;3.61;100.00;101638.78;4993685;28;20193;-47
2022/12/06 03:10:56;;;;;;;2.35;1.40;;;;;;;3.61;100.00;101632.59;4992197;28;20576;-44
2022/12/06 03:13:29;;;;;;;3.38;1.25;;;;;;;3.61;100.00;101616.69;4993721;28;20236;-46
2022/12/06 03:15:59;;;;;;;3.83;1.45;;;;;;;3.61;100.00;101619.34;4997865;28;20548;-45
2022/12/06 03:18:32;;;;;;;1.67;0.93;;;;;;;3.63;100.00;101621.13;4997650;28;20208;-46
2022/12/06 03:21:07;;;;;;;1.48;1.10;;;;;;;3.62;100.00;101619.34;4992339;28;20216;-46
2022/12/06 03:23:39;;;;;;;2.45;0.90;;;;;;;3.61;100.00;101616.69;4998958;28;20195;-46
2022/12/06 03:26:08;;;;;;;2.13;0.90;;;;;;;3.62;100.00;101618.44;4994640;28;20197;-47
2022/12/06 03:28:36;;;;;;;0.90;0.90;;;;;;;3.65;100.00;101613.16;4991131;28;20303;-45
2022/12/06 03:31:09;;;;;;;1.02;0.90;;;;;;;3.63;100.00;101605.22;4995803;28;20172;-46
2022/12/06 03:33:38;;;;;;;1.23;0.85;;;;;;;3.66;100.00;101601.69;4993117;28;20203;-46
2022/12/06 03:36:06;;;;;;;1.63;1.02;;;;;;;3.65;100.00;101608.75;4992673;28;20660;-46
2022/12/06 03:38:44;;;;;;;2.05;1.30;;;;;;;3.66;100.00;101605.22;4995710;28;20647;-45
2022/12/06 03:41:12;;;;;;;1.48;0.80;;;;;;;3.65;100.00;101598.16;4991239;28;20235;-46
2022/12/06 03:43:37;;;;;;;0.95;0.90;;;;;;;3.70;100.00;101603.47;4991035;28;20177;-48
2022/12/06 03:46:11;;;;;;;4.32;0.98;;;;;;;3.65;100.00;101584.91;4990881;28;20201;-46
2022/12/06 03:48:43;;;;;;;1.42;1.08;;;;;;;3.72;100.00;101591.97;4992344;28;20224;-45
2022/12/06 03:51:14;;;;;;;0.93;0.93;;;;;;;3.72;100.00;101589.34;4989479;28;20710;-46
2022/12/06 03:53:46;;;;;;;3.00;1.20;;;;;;;3.68;100.00;101590.19;4990694;28;20185;-45
2022/12/06 03:56:12;;;;;;;3.13;2.08;;;;;;;3.71;100.00;101594.63;4990992;28;20545;-46
2022/12/06 03:58:37;;;;;;;1.85;1.30;;;;;;;3.73;100.00;101587.56;4993054;28;20188;-45
2022/12/06 04:01:03;;;;;;;1.42;1.20;;;;;;;3.69;100.00;101589.31;4995677;28;20552;-47
2022/12/06 04:03:29;;;;;;;1.00;1.00;;;;;;;3.67;100.00;101588.44;4991165;28;20192;-45
2022/12/06 04:05:55;;;;;;;2.72;1.50;;;;;;;3.69;100.00;101588.44;4994803;28;20583;-47
2022/12/06 04:08:20;;;;;;;1.15;1.00;;;;;;;3.68;100.00;101587.56;4994249;28;20181;-45
2022/12/06 04:10:46;;;;;;;1.20;1.10;;;;;;;3.65;100.00;101576.97;4993095;28;20295;-46
2022/12/06 04:13:11;;;;;;;1.38;1.10;;;;;;;3.67;100.00;101585.81;4996475;28;20625;-46
2022/12/06 04:15:38;;;;;;;2.00;1.20;;;;;;;3.66;100.00;101585.78;4992746;28;20269;-46
2022/12/06 04:18:13;;;;;;;2.55;1.00;;;;;;;3.65;100.00;101582.25;4998116;28;20181;-46
2022/12/06 04:23:23;;;;;;;2.50;1.05;;;;;;;3.67;100.00;101571.63;4993959;28;20256;-47
2022/12/06 04:25:49;;;;;;;1.30;1.20;;;;;;;3.66;100.00;101578.72;4995056;28;20303;-46
2022/12/06 04:39:11;;;;;;;1.83;0.90;;;;;;;3.72;100.00;101568.13;4993978;28;20209;-42
2022/12/06 04:44:20;;;;;;;1.40;1.25;;;;;;;3.68;100.00;101578.72;4996270;28;20252;-43
2022/12/06 04:46:46;;;;;;;0.80;0.80;;;;;;;3.65;100.00;101578.69;4994254;28;20201;-44
2022/12/06 04:49:11;;;;;;;2.30;1.17;;;;;;;3.70;100.00;101583.16;4998686;28;20235;-44
2022/12/06 04:51:37;;;;;;;1.58;1.10;;;;;;;3.71;100.00;101576.94;4995727;28;20193;-41
2022/12/06 04:54:04;;;;;;;1.63;1.15;;;;;;;3.72;100.00;101577.84;4994128;28;20181;-42
2022/12/06 04:56:30;;;;;;;2.15;1.60;;;;;;;3.73;100.00;101576.97;5000705;28;20188;-42
2022/12/06 04:58:56;;;;;;;1.75;1.65;;;;;;;3.70;100.00;101569.91;4996085;28;20233;-46
2022/12/06 05:01:21;;;;;;;1.80;1.70;;;;;;;3.69;100.00;101577.84;4993869;28;20268;-47
2022/12/06 05:03:47;;;;;;;3.72;2.00;;;;;;;3.66;100.00;101570.75;5004245;28;20587;-44
2022/12/06 05:06:12;;;;;;;3.42;1.50;;;;;;;3.58;100.00;101580.44;5010200;28;20177;-45
2022/12/06 05:08:38;;;;;;;2.33;1.60;;;;;;;3.61;100.00;101569.88;5010262;28;20172;-47
2022/12/06 05:11:04;;;;;;;4.32;1.88;;;;;;;3.60;100.00;101576.03;5009782;28;20227;-44
2022/12/06 05:13:29;;;;;;;2.60;1.90;;;;;;;3.56;100.00;101576.91;5014148;28;20180;-43
2022/12/06 05:16:00;;;;;;;3.33;1.98;;;;;;;3.54;100.00;101583.09;5013894;28;20210;-47
2022/12/06 05:18:26;;;;;;;1.73;1.63;;;;;;;3.53;100.00;101573.38;5014085;28;20874;-44
2022/12/06 05:21:11;;;;;;;2.22;1.88;;;;;;;3.54;100.00;101583.09;5013773;28;20250;-49
2022/12/06 05:23:37;;;;;;;1.92;1.70;;;;;;;3.43;100.00;101570.72;5013540;28;20607;-45
2022/12/06 05:26:10;;;;;;;1.90;1.77;;;;;;;3.49;100.00;101580.44;5013639;28;20235;-44
2022/12/06 05:28:35;;;;;;;1.80;1.70;;;;;;;3.55;100.00;101580.47;5013519;28;20173;-44
2022/12/06 05:31:01;;;;;;;2.47;2.03;;;;;;;3.44;100.00;101568.94;5013689;28;20251;-45
2022/12/06 05:33:27;;;;;;;4.18;2.10;;;;;;;3.44;100.00;101567.19;5013600;28;20164;-47
2022/12/06 05:35:53;;;;;;;2.28;2.08;;;;;;;3.47;100.00;101577.78;5013257;28;20169;-48
2022/12/06 05:38:19;;;;;;;5.75;2.50;;;;;;;3.42;100.00;101581.31;5013607;28;20204;-43
2022/12/06 05:40:45;;;;;;;3.08;2.58;;;;;;;3.43;100.00;101580.41;5012972;28;20189;-43
2022/12/06 05:43:11;;;;;;;4.03;2.25;;;;;;;3.37;100.00;101573.34;5013405;28;20252;-48
2022/12/06 05:45:37;;;;;;;3.85;2.72;;;;;;;3.31;100.00;101578.63;5012020;28;20287;-43
2022/12/06 05:48:03;;;;;;;3.33;2.72;;;;;;;3.29;100.00;101578.59;5013076;28;20595;-44
2022/12/06 05:50:28;;;;;;;3.40;2.35;;;;;;;3.26;100.00;101577.72;5013221;28;20188;-42
2022/12/06 05:52:58;;;;;;;3.38;2.80;;;;;;;3.30;100.00;101577.75;5012966;28;20244;-45
2022/12/06 05:55:25;;;;;;;4.88;2.78;;;;;;;3.31;100.00;101575.97;5013141;28;20539;-42
2022/12/06 05:57:51;;;;;;;6.45;2.60;;;;;;;3.38;100.00;101567.16;5013290;28;20176;-43
2022/12/06 06:00:18;;;;;;;4.25;2.60;;;;;;;3.34;100.00;101572.44;5012990;28;20200;-46
2022/12/06 06:02:44;;;;;;;6.68;3.03;;;;;;;3.34;100.00;101565.38;5012061;28;20196;-47
2022/12/06 06:05:10;;;;;;;6.35;2.92;;;;;;;3.34;100.00;101573.31;5012866;28;20243;-47
2022/12/06 06:07:36;;;;;;;3.22;3.03;;;;;;;3.32;100.00;101576.84;5013064;28;20173;-46
2022/12/06 06:10:04;;;;;;;7.55;4.05;;;;;;;3.28;100.00;101578.63;5012944;28;20188;-42
2022/12/06 06:12:29;;;;;;;6.22;3.67;;;;;;;3.28;100.00;101583.91;5011659;28;20184;-43
2022/12/06 06:14:55;;;;;;;4.40;3.97;;;;;;;3.28;100.00;101586.56;5013049;28;20161;-42
2022/12/06 06:17:20;;;;;;;5.40;4.03;;;;;;;3.33;100.00;101583.94;5012754;28;20224;-48
2022/12/06 06:19:46;;;;;;;5.30;4.38;;;;;;;3.27;100.00;101572.41;5012989;28;20227;-45
2022/12/06 06:22:12;;;;;;;6.93;3.75;;;;;;;3.20;100.00;101581.22;5012791;28;20250;-45
2022/12/06 06:24:39;;;;;;;3.88;3.33;;;;;;;3.23;100.00;101575.03;5011222;28;20670;-44
2022/12/06 06:27:05;;;;;;;5.10;3.85;;;;;;;3.23;100.00;101586.50;5011432;28;20599;-49
2022/12/06 06:29:31;;;;;;;5.47;3.63;;;;;;;3.21;100.00;101590.91;5012487;28;20184;-43
2022/12/06 06:31:57;;;;;;;9.93;4.63;;;;;;;3.20;100.00;101588.28;5012750;28;20165;-44
2022/12/06 06:34:23;;;;;;;5.00;4.05;;;;;;;3.17;100.00;101589.16;4995282;28;20538;-43
2022/12/06 06:36:50;;;;;;;5.40;4.60;;;;;;;3.21;100.00;101585.63;5012131;28;20188;-44
2022/12/06 06:39:17;;;;;;;6.80;4.32;;;;;;;3.18;100.00;101595.34;5011128;28;20188;-45
2022/12/06 06:41:43;;;;;;;11.43;4.88;;;;;;;3.14;100.00;101591.78;5012298;28;20191;-44
2022/12/06 06:44:09;;;;;;;8.13;4.95;;;;;;;3.22;100.00;101591.81;5012440;28;20185;-44
2022/12/06 06:46:35;;;;;;;7.60;5.40;;;;;;;3.23;100.00;101594.47;5012235;28;20251;-44
2022/12/06 06:49:00;;;;;;;10.52;5.80;;;;;;;3.25;100.00;101584.75;5011646;28;20205;-43
2022/12/06 06:51:26;;;;;;;10.45;6.13;;;;;;;3.24;100.00;101590.06;5012244;28;20176;-46
2022/12/06 06:53:51;;;;;;;9.23;5.97;;;;;;;3.24;100.00;101596.25;5011786;28;20162;-47
2022/12/06 06:56:18;;;;;;;9.20;6.60;;;;;;;3.20;100.00;101597.09;5012017;28;20620;-41
2022/12/06 06:58:43;;;;;;;10.65;7.00;;;;;;;3.21;100.00;101593.56;5011761;28;20196;-44
2022/12/06 07:01:16;;;;;;;8.13;6.65;;;;;;;3.21;100.00;101593.56;5011533;28;20174;-44
2022/12/06 07:03:42;;;;;;;10.07;7.25;;;;;;;3.18;100.00;101590.91;5012270;28;20244;-44
2022/12/06 07:06:09;;;;;;;9.68;6.85;;;;;;;3.21;100.00;101597.97;5011827;28;20767;-46
2022/12/06 07:08:35;;;;;;;10.40;6.47;;;;;;;3.23;100.00;101591.81;5010478;28;20172;-49
2022/12/06 07:11:01;;;;;;;8.90;7.05;;;;;;;3.25;100.00;101602.41;5010655;28;20177;-47
2022/12/06 07:13:27;;;;;;;8.18;6.70;;;;;;;3.26;100.00;101593.63;5011708;28;20307;-44
2022/12/06 07:15:53;;;;;;;9.05;7.22;;;;;;;3.29;100.00;101591.84;5010685;28;20173;-44
2022/12/06 07:18:20;;;;;;;12.20;7.50;;;;;;;3.25;100.00;101586.53;5011587;28;20165;-50
2022/12/06 07:20:47;;;;;;;13.88;8.60;;;;;;;3.23;100.00;101601.53;5011656;28;20667;-47
2022/12/06 07:23:13;;;;;;;11.07;9.05;;;;;;;3.23;100.00;101597.09;5011510;28;20248;-44
2022/12/06 07:25:39;;;;;;;13.55;9.68;;;;;;;3.22;100.00;101591.81;5011568;28;20189;-44
2022/12/06 07:28:04;;;;;;;13.50;9.50;;;;;;;3.29;100.00;101594.50;5009645;28;20222;-44
2022/12/06 07:30:30;;;;;;;16.63;10.50;;;;;;;3.27;100.00;101596.25;5010938;28;20200;-45
2022/12/06 07:32:56;;;;;;;12.65;9.52;;;;;;;3.26;100.00;101594.50;5011570;28;20215;-46
2022/12/06 07:35:22;;;;;;;12.27;9.55;;;;;;;3.23;100.00;101599.75;5010017;28;20616;-48
2022/12/06 07:37:47;;;;;;;12.57;8.70;;;;;;;3.36;100.00;101605.13;5011186;28;20204;-40
2022/12/06 07:40:14;;;;;;;12.55;9.45;;;;;;;3.23;100.00;101597.09;5011549;28;20211;-46
2022/12/06 07:45:24;;;;;;;13.60;10.50;;;;;;;3.30;100.00;101596.28;5011072;28;20193;-47
2022/12/06 07:47:50;;;;;;;8.70;6.78;;;;;;;3.21;100.00;101600.63;5011396;28;20196;-45
2022/12/06 07:50:19;;;;;;;10.02;6.28;;;;;;;3.10;100.00;101597.94;5010964;28;20776;-44
2022/12/06 07:52:46;;;;;;;7.28;5.80;;;;;;;3.18;100.00;101603.28;5010045;28;20740;-46
2022/12/06 07:55:11;;;;;;;7.97;6.78;;;;;;;3.15;100.00;101598.84;5011198;28;20211;-45
2022/12/06 07:57:37;;;;;;;8.55;6.10;;;;;;;3.27;100.00;101596.25;5011065;28;20172;-46
2022/12/06 08:00:05;;;;;;;8.63;6.47;;;;;;;3.32;100.00;101598.91;5009810;28;20545;-49
2022/12/06 08:02:37;;;;;;;10.07;6.75;;;;;;;3.37;100.00;101590.97;5010863;28;20173;-47
2022/12/06 08:05:03;;;;;;;7.20;5.97;;;;;;;3.36;100.00;101597.16;5011009;28;20659;-45
2022/12/06 08:07:30;;;;;;;9.27;6.95;;;;;;;3.29;100.00;101602.44;5010792;28;20230;-50
2022/12/06 08:09:55;;;;;;;12.02;8.43;;;;;;;3.27;100.00;101611.25;5010512;28;20197;-47
2022/12/06 08:12:21;;;;;;;11.98;8.52;;;;;;;3.30;100.00;101598.00;5010851;28;20195;-45
2022/12/06 08:14:47;;;;;;;11.07;7.43;;;;;;;3.31;100.00;101613.03;5010517;28;20311;-45
2022/12/06 08:17:14;;;;;;;12.00;7.90;;;;;;;3.29;100.00;101607.72;5010420;28;20243;-48
2022/12/06 08:19:39;;;;;;;11.02;7.55;;;;;;;3.26;100.00;101615.69;5010778;28;20247;-44
2022/12/06 08:22:05;;;;;;;13.50;9.07;;;;;;;3.28;100.00;101613.03;5010271;28;20647;-45
2022/12/06 08:24:30;;;;;;;11.02;8.57;;;;;;;3.32;100.00;101614.81;5009639;28;20160;-47
2022/12/06 08:26:58;;;;;;;11.75;8.35;;;;;;;3.26;100.00;101620.97;5009248;28;20192;-48
2022/12/06 08:29:23;;;;;;;11.20;8.23;;;;;;;3.21;100.00;101606.81;4993858;28;20201;-42
2022/12/06 08:31:49;;;;;;;11.70;8.98;;;;;;;3.15;100.00;101616.47;4992076;28;20199;-47
2022/12/06 08:34:15;;;;;;;10.82;8.07;;;;;;;3.23;100.00;101617.41;4990431;28;20263;-46
2022/12/06 08:36:42;;;;;;;14.63;9.48;;;;;;;3.18;100.00;101617.41;4988423;28;20293;-48
2022/12/06 08:39:10;;;;;;;11.75;8.90;;;;;;;3.28;100.00;101624.50;4993799;28;20211;-50
2022/12/06 08:41:54;;;;;;;14.25;9.80;;;;;;;3.17;100.00;101626.22;4991213;28;20216;-47
2022/12/06 08:44:20;;;;;;;14.32;10.45;;;;;;;3.12;100.00;101616.47;5000458;28;20575;-49
2022/12/06 08:46:47;;;;;;;14.00;10.77;;;;;;;3.07;100.00;101624.41;4994892;28;20212;-49
2022/12/06 08:49:14;;;;;;;12.32;10.77;;;;;;;3.05;100.00;101615.56;4995793;28;20628;-47
2022/12/06 08:51:40;;;;;;;12.85;10.32;;;;;;;3.03;100.00;101617.31;4999272;28;20185;-49
2022/12/06 08:54:07;;;;;;;16.67;10.48;;;;;;;2.96;100.00;101618.16;4997777;28;20653;-48
2022/12/06 08:56:34;;;;;;;13.85;10.18;;;;;;;2.94;100.00;101619.91;4997489;28;20666;-49
2022/12/06 08:59:00;;;;;;;15.10;10.70;;;;;;;2.89;100.00;101623.41;4997404;28;20229;-49
2022/12/06 09:01:28;;;;;;;14.85;11.55;;;;;;;2.93;100.00;101624.34;4994271;28;20240;-47
2022/12/06 09:03:54;;;;;;;13.45;11.27;;;;;;;2.93;100.00;101616.41;4993725;28;20251;-47
2022/12/06 09:06:21;;;;;;;18.65;12.30;;;;;;;2.87;100.00;101619.88;4993030;28;20205;-47
2022/12/06 09:08:47;;;;;;;17.40;12.25;;;;;;;2.83;100.00;101630.44;4998411;28;20228;-49
2022/12/06 09:11:13;;;;;;;17.15;13.38;;;;;;;2.87;100.00;101627.81;5000369;28;20213;-48
2022/12/06 09:13:40;;;;;;;16.65;13.00;;;;;;;2.86;100.00;101625.16;4996859;28;20190;-48
2022/12/06 09:16:07;;;;;;;18.35;13.38;;;;;;;2.93;100.00;101626.06;4999908;28;20180;-47
2022/12/06 09:18:33;;;;;;;18.20;12.25;;;;;;;2.79;100.00;101631.28;5001063;28;20190;-49
2022/12/06 09:20:58;;;;;;;20.65;13.75;;;;;;;2.80;100.00;101639.25;4995117;28;20595;-47
2022/12/06 09:23:24;;;;;;;21.27;13.73;;;;;;;2.84;100.00;101630.47;5004821;28;20593;-48
2022/12/06 09:25:50;;;;;;;18.27;13.27;;;;;;;2.80;100.00;101639.25;4998346;28;20196;-48
2022/12/06 09:28:16;;;;;;;18.55;13.10;;;;;;;2.76;100.00;101633.94;4995203;28;20627;-48
2022/12/06 09:30:41;;;;;;;17.08;13.57;;;;;;;2.76;100.00;101626.88;5001937;28;20205;-48
2022/12/06 09:33:07;;;;;;;18.73;14.43;;;;;;;2.77;100.00;101625.97;4994883;28;20224;-42
2022/12/06 09:35:34;;;;;;;16.70;13.70;;;;;;;2.80;100.00;101625.09;4994694;28;20188;-41
2022/12/06 09:38:02;;;;;;;18.77;14.23;;;;;;;2.82;100.00;101621.63;4997288;28;20203;-45
2022/12/06 09:40:47;;;;;;;15.90;14.18;;;;;;;2.70;100.00;101632.09;4993358;28;20205;-42
2022/12/06 09:43:43;;;;;;;18.05;13.38;;;;;;;2.77;100.00;101625.09;4994295;28;20224;-43
2022/12/06 09:46:35;;;;;;;16.73;12.77;;;;;;;2.80;100.00;101619.81;4993539;28;20206;-40
2022/12/06 09:49:39;;;;;;;18.92;12.50;;;;;;;2.65;100.00;101625.91;4996567;28;20700;-41
2022/12/06 09:52:16;;;;;;;18.08;13.18;;;;;;;2.69;100.00;101622.41;4954304;28;20669;-42
2022/12/06 09:55:20;;;;;;;15.63;12.48;;;;;;;2.65;100.00;101628.56;4993626;28;20628;-42
2022/12/06 09:57:56;;;;;;;19.42;14.50;;;;;;;2.64;100.00;101622.34;4995657;28;20240;-41
2022/12/06 10:00:22;;;;;;;16.02;13.13;;;;;;;2.71;100.00;101625.94;4994687;28;20292;-42
2022/12/06 10:03:26;;;;;;;18.35;14.00;;;;;;;2.66;100.00;101625.03;4999467;28;20238;-45
2022/12/06 10:06:00;;;;;;;18.80;13.50;;;;;;;2.61;100.00;101627.63;4977304;28;20208;-40
2022/12/06 10:08:51;;;;;;;19.58;13.75;;;;;;;2.64;100.00;101629.41;4993727;28;20750;-44
2022/12/06 10:11:41;;;;;;;17.65;12.95;;;;;;;2.69;100.00;101622.41;4996632;28;20589;-44
2022/12/06 10:14:06;;;;;;;18.33;12.77;;;;;;;2.65;100.00;101620.63;4997441;28;20181;-42
2022/12/06 10:16:46;;;;;;;17.17;13.30;;;;;;;2.67;100.00;101629.47;4994062;28;20192;-43
2022/12/06 10:19:24;;;;;;;16.50;12.70;;;;;;;2.62;100.00;101629.44;4994749;28;20208;-43
2022/12/06 10:21:56;;;;;;;16.85;12.82;;;;;;;2.66;100.00;101620.59;4993997;28;20185;-46
2022/12/06 10:24:24;;;;;;;15.15;13.23;;;;;;;2.67;100.00;101610.94;5002254;28;20192;-42
2022/12/06 10:26:53;;;;;;;17.45;13.57;;;;;;;2.65;100.00;101613.56;4998946;28;20213;-43
2022/12/06 10:29:21;;;;;;;16.55;12.63;;;;;;;2.71;100.00;101610.06;4993296;28;20200;-42
2022/12/06 10:31:53;;;;;;;16.33;13.05;;;;;;;2.73;100.00;101602.13;4994672;28;20218;-41
2022/12/06 10:34:21;;;;;;;16.00;12.30;;;;;;;2.57;100.00;101601.16;4997991;28;20300;-44
2022/12/06 10:36:59;;;;;;;13.73;11.35;;;;;;;2.57;100.00;101598.50;4992432;28;20188;-42
2022/12/06 10:39:48;;;;;;;17.42;11.98;;;;;;;2.65;100.00;101597.69;4991315;28;20217;-42
2022/12/06 10:42:25;;;;;;;16.40;12.25;;;;;;;2.68;100.00;101591.53;4993240;28;20292;-43
2022/12/06 10:47:02;;;;;;;13.18;11.45;;;;;;;2.66;100.00;101591.50;4997820;28;20234;-42
2022/12/06 10:47:55;;;;;;;15.00;11.95;;;;;;;2.67;100.00;101595.06;4995367;28;20231;-42
2022/12/06 10:50:25;;;;;;;17.00;11.82;;;;;;;2.65;100.00;101591.53;4992746;28;20557;-44
2022/12/06 10:52:57;;;;;;;13.63;11.43;;;;;;;2.70;100.00;101591.53;4996294;28;20640;-42
2022/12/06 10:55:30;;;;;;;14.55;11.77;;;;;;;2.72;100.00;101581.84;4996712;28;20181;-44
2022/12/06 10:57:58;;;;;;;13.02;10.77;;;;;;;2.61;100.00;101579.13;4991040;28;20605;-42
2022/12/06 11:00:25;;;;;;;13.73;10.93;;;;;;;2.63;100.00;101574.75;4995251;28;20205;-44
2022/12/06 11:03:32;;;;;;;11.82;10.63;;;;;;;2.76;100.00;101581.00;4995783;28;20532;-44
2022/12/06 11:06:00;;;;;;;15.75;10.70;;;;;;;2.66;100.00;101574.75;4992053;28;20692;-44
2022/12/06 11:08:35;;;;;;;12.93;10.13;;;;;;;2.65;100.00;101579.16;4999559;28;20188;-41
2022/12/06 11:11:04;;;;;;;11.25;9.85;;;;;;;2.68;100.00;101578.28;4993468;28;20551;-44
2022/12/06 11:13:37;;;;;;;11.02;9.50;;;;;;;2.66;100.00;101574.75;4995854;28;20189;-44
2022/12/06 11:16:20;;;;;;;9.82;8.82;;;;;;;2.68;100.00;101568.59;4994831;28;20172;-43
2022/12/06 11:18:47;;;;;;;10.15;9.07;;;;;;;2.77;100.00;101578.34;4993867;28;20205;-41
2022/12/06 11:21:31;;;;;;;9.68;8.65;;;;;;;2.65;100.00;101567.72;4981795;28;20319;-43
2022/12/06 11:24:26;;;;;;;10.20;8.75;;;;;;;2.62;100.00;101563.28;4993920;28;20191;-44
2022/12/06 11:27:04;;;;;;;9.50;7.72;;;;;;;2.70;100.00;101560.66;4995126;28;20594;-43
2022/12/06 11:29:30;;;;;;;9.23;8.07;;;;;;;2.68;100.00;101552.72;4992937;28;20213;-42
2022/12/06 11:32:02;;;;;;;10.00;8.90;;;;;;;2.64;100.00;101557.97;4993187;28;20195;-44
2022/12/06 11:34:37;;;;;;;9.13;7.53;;;;;;;2.49;100.00;101545.53;4998775;28;20280;-43
2022/12/06 11:37:05;;;;;;;9.55;7.70;;;;;;;2.58;100.00;101555.28;4995800;28;20335;-43
2022/12/06 11:39:32;;;;;;;9.02;7.68;;;;;;;2.58;100.00;101550.00;4993520;28;20197;-43
2022/12/06 11:42:02;;;;;;;8.70;7.22;;;;;;;2.54;100.00;101530.59;4995535;28;20209;-43
2022/12/06 11:44:37;;;;;;;7.68;6.60;;;;;;;2.54;100.00;101537.66;5000760;28;20234;-42
2022/12/06 11:47:04;;;;;;;9.40;7.55;;;;;;;2.65;100.00;101530.66;4991522;28;20316;-41
2022/12/06 11:49:41;;;;;;;11.52;7.28;;;;;;;2.53;100.00;101538.53;4996230;28;20579;-42
2022/12/06 11:52:12;;;;;;;7.10;6.45;;;;;;;2.56;100.00;101528.84;4993234;28;20184;-41
2022/12/06 11:54:45;;;;;;;7.70;6.90;;;;;;;2.59;100.00;101535.91;4992617;28;20681;-46